Latest Weather Observations for Cocos Island

IDW60801

Issued at 3:03 am WST Sunday 1 February 2015 (issued every 30 minutes, with the page automatically refreshed every 10 minutes)

About weather observations | Map of weather stations | Latest weather observations for WA | Other Formats
Station Details ID: 200284 Name: COCOS ISLAND AIRPORT Lat: -12.19 Lon: 96.83 Height: 3.0 m
Data from the previous 72 hours. | See also: Recent months at Cocos Island
Date/Time
WST
Temp
°C
App
Temp
°C
Dew
Point
Rel
Hum
%
Delta-T
°C
Wind Press
QNH
hPa
Press
MSL
hPa
Rain
since 9 am
mm
Dir
 
Spd
km/h
Gust
km/h
Spd
kts
Gust
kts
01/03:00am 26.7 30.1 24.1 86 1.8 NW 13 17 7 9 1009.1 - 10.8
01/02:30am 26.7 30.2 24.2 86 1.7 NW 13 15 7 8 1009.4 - 10.8
01/02:00am 26.7 29.3 23.9 84 1.9 NW 17 20 9 11 1009.8 1009.8 10.8
01/01:30am 26.8 28.8 23.6 82 2.2 WNW 19 24 10 13 1010.2 - 10.8
01/01:00am 26.5 28.5 23.9 85 1.8 NW 20 26 11 14 1010.4 - 10.8
01/12:30am 26.5 28.9 23.6 84 2.0 NW 17 22 9 12 1010.5 - 10.8
01/12:00am 26.6 30.0 24.1 86 1.7 NW 13 20 7 11 1010.8 - 10.8
 
Date/Time
WST
Temp
°C
App
Temp
°C
Dew
Point
Rel
Hum
%
Delta-T
°C
Wind Press
QNH
hPa
Press
MSL
hPa
Rain
since 9 am
mm
Dir
 
Spd
km/h
Gust
km/h
Spd
kts
Gust
kts
31/11:30pm 26.6 30.4 24.1 86 1.7 NNW 11 13 6 7 1011.2 - 10.8
31/11:00pm 26.3 30.1 24.0 87 1.6 NW 11 13 6 7 1011.2 1011.2 10.8
31/10:30pm 26.5 30.6 23.9 85 1.8 NNW 9 13 5 7 1011.1 - 10.8
31/10:00pm 26.4 30.3 23.6 84 1.9 NNW 9 13 5 7 1011.1 - 10.8
31/09:30pm 26.3 29.9 24.3 89 1.4 NNW 13 15 7 8 1010.5 - 10.8
31/09:22pm 26.4 30.2 24.1 87 1.6 N 11 17 6 9 1010.5 - 10.8
31/09:10pm 26.5 30.4 24.3 88 1.5 NNW 11 17 6 9 1010.5 - 10.8
31/09:00pm 26.7 31.3 24.1 86 1.8 N 7 11 4 6 1010.4 - 10.8
31/08:30pm 26.5 30.5 23.7 84 1.9 NNW 9 11 5 6 1010.1 - 10.8
31/08:00pm 26.4 30.8 23.5 84 2.0 NNW 6 9 3 5 1010.0 1010.0 10.8
31/07:30pm 26.6 29.3 23.4 82 2.2 NNW 15 20 8 11 1009.8 - 10.8
31/07:00pm 27.3 31.0 23.2 78 2.8 N 9 13 5 7 1009.3 - 10.6
31/06:30pm 27.0 30.2 23.0 79 2.7 NE 11 11 6 6 1008.9 - 10.6
31/06:00pm 26.8 30.2 23.4 81 2.3 NE 11 15 6 8 1009.2 - 10.6
31/05:30pm 26.4 29.5 24.1 87 1.6 NE 15 19 8 10 1009.1 - 10.6
31/05:20pm 26.5 29.4 24.5 89 1.4 NNE 17 20 9 11 1009.0 - 10.6
31/05:12pm 26.1 29.0 24.5 91 1.1 NNE 17 22 9 12 1009.0 - 10.6
31/05:00pm 26.0 28.4 24.3 90 1.2 NNE 19 22 10 12 1008.9 1008.9 10.6
31/04:48pm 26.7 29.6 24.4 87 1.6 NE 17 20 9 11 1009.0 - 10.6
31/04:30pm 26.1 29.2 23.6 86 1.7 ESE 13 17 7 9 1009.1 - 10.6
31/04:22pm 25.6 29.2 23.7 89 1.3 E 11 15 6 8 1009.2 - 10.6
31/04:15pm 25.9 29.5 23.7 88 1.5 ENE 11 19 6 10 1009.3 - 9.4
31/04:00pm 26.9 31.0 23.2 80 2.5 NNE 7 20 4 11 1009.5 - 0.8
31/03:56pm 28.2 33.0 24.2 79 2.8 ENE 6 9 3 5 1009.5 - 0.2
31/03:30pm 28.9 33.8 24.6 77 3.0 E 7 9 4 5 1009.5 - 0.2
31/03:00pm 28.7 33.1 24.4 77 3.0 ENE 9 13 5 7 1009.9 - 0.2
31/02:30pm 28.3 33.1 24.4 79 2.7 ENE 7 9 4 5 1010.2 - 0.2
31/02:00pm 28.2 32.7 24.6 81 2.5 ESE 9 13 5 7 1010.6 1010.6 0.0
31/01:30pm 26.7 30.4 24.5 88 1.5 ESE 13 17 7 9 1010.6 - 0.0
31/01:00pm 26.6 29.3 25.0 91 1.1 SE 20 26 11 14 1010.9 - 0.0
31/12:30pm 27.2 30.0 24.3 84 2.0 ESE 17 22 9 12 1011.3 - 0.0
31/12:00pm 28.2 31.3 25.4 85 2.0 E 19 28 10 15 1011.2 - 0.0
31/11:30am 28.2 32.1 24.9 82 2.3 E 13 17 7 9 1011.5 - 0.0
31/11:00am 28.0 32.1 23.9 78 2.8 E 9 15 5 8 1011.4 1011.4 0.2
31/10:30am 27.7 32.1 24.5 83 2.2 ESE 9 13 5 7 1011.3 - 0.2
31/10:00am 27.7 32.1 24.4 82 2.3 SSE 9 11 5 6 1011.6 - 0.2
31/09:30am 27.6 31.6 23.7 79 2.7 S 9 11 5 6 1011.5 - 0.2
31/09:00am 27.5 32.2 24.0 81 2.4 SW 6 7 3 4 1011.5 - 0.2
31/08:30am 27.3 31.3 23.8 81 2.4 SW 9 13 5 7 1011.1 - 0.2
31/08:00am 27.0 31.4 23.8 82 2.2 SW 7 11 4 6 1010.7 1010.7 0.2
31/07:00am 26.9 31.1 23.5 81 2.3 WSW 7 9 4 5 1010.6 - 0.2
31/06:30am 26.8 30.6 23.4 81 2.3 WSW 9 13 5 7 1010.2 - 0.2
31/06:00am 26.6 30.8 23.4 82 2.2 SW 7 9 4 5 1010.0 - 0.2
31/05:30am 26.4 30.5 23.3 83 2.1 SW 7 9 4 5 1010.0 - 0.2
31/05:00am 26.1 30.9 23.5 85 1.8 NW 4 6 2 3 1009.9 1009.9 0.2
31/04:30am 25.7 31.3 23.5 88 1.5 CALM 0 0 0 0 1009.9 - 0.2
31/04:00am 25.4 29.8 23.5 89 1.3 NW 6 7 3 4 1010.3 - 0.2
31/03:30am 26.3 30.5 23.5 84 1.9 NW 7 9 4 5 1010.3 - 0.2
31/03:00am 25.1 30.9 23.9 93 0.8 CALM 0 0 0 0 1010.6 - 0.2
31/02:30am 25.1 30.7 23.6 91 1.0 CALM 0 0 0 0 1011.0 - 0.2
31/02:00am 26.2 31.8 23.6 85 1.8 CALM 0 6 0 3 1011.6 1011.6 0.2
31/01:30am 25.4 30.1 23.3 88 1.4 WSW 4 7 2 4 1012.1 - 0.2
31/01:00am 25.4 30.8 23.2 88 1.5 CALM 0 0 0 0 1012.2 - 0.2
31/12:30am 25.7 31.2 23.4 87 1.6 CALM 0 0 0 0 1012.1 - 0.2
31/12:00am 26.5 32.0 23.4 83 2.1 CALM 0 2 0 1 1012.2 - 0.2
 
Date/Time
WST
Temp
°C
App
Temp
°C
Dew
Point
Rel
Hum
%
Delta-T
°C
Wind Press
QNH
hPa
Press
MSL
hPa
Rain
since 9 am
mm
Dir
 
Spd
km/h
Gust
km/h
Spd
kts
Gust
kts
30/11:30pm 27.4 31.2 23.5 79 2.7 NE 9 11 5 6 1011.8 - 0.2
30/11:00pm 27.4 30.5 23.6 80 2.6 ENE 13 17 7 9 1011.2 1011.2 0.2
30/10:30pm 27.5 30.1 23.9 81 2.5 ENE 17 20 9 11 1010.9 - 0.2
30/10:00pm 27.6 30.5 23.8 80 2.6 ENE 15 19 8 10 1010.9 - 0.2
30/09:30pm 27.5 30.5 23.3 78 2.9 ENE 13 15 7 8 1010.7 - 0.2
30/09:00pm 27.1 31.7 24.1 84 2.1 ESE 7 9 4 5 1010.4 - 0.2
30/08:30pm 27.0 32.7 23.8 82 2.2 CALM 0 6 0 3 1010.2 - 0.2
30/08:00pm 27.3 31.9 23.8 81 2.4 NE 6 7 3 4 1010.3 1010.3 0.2
30/07:30pm 27.7 33.6 24.1 81 2.5 CALM 0 0 0 0 1010.2 - 0.2
30/07:00pm 27.7 33.5 23.9 80 2.6 CALM 0 0 0 0 1010.0 - 0.2
30/06:30pm 28.0 32.1 23.3 75 3.2 N 7 9 4 5 1010.2 - 0.2
30/06:00pm 28.1 32.4 23.7 77 3.0 N 7 11 4 6 1010.3 - 0.2
30/05:30pm 28.2 32.2 23.7 76 3.1 NNE 9 13 5 7 1010.4 - 0.2
30/05:00pm 28.6 33.2 24.1 76 3.1 E 7 9 4 5 1010.7 1010.7 0.2
30/04:30pm 28.8 33.1 24.3 76 3.1 ENE 9 11 5 6 1010.7 - 0.2
30/04:00pm 28.8 32.9 24.0 75 3.3 ENE 9 11 5 6 1010.8 - 0.2
30/03:30pm 28.4 32.4 23.8 76 3.2 NE 9 11 5 6 1011.0 - 0.2
30/03:00pm 28.5 32.0 24.2 77 3.0 NE 13 17 7 9 1011.0 - 0.2
30/02:30pm 28.4 30.5 24.1 77 3.0 NNE 20 26 11 14 1011.2 - 0.2
30/02:00pm 27.7 29.8 24.1 81 2.5 NE 20 24 11 13 1011.8 1011.8 0.0
30/01:30pm 27.6 28.7 23.7 79 2.7 ENE 24 26 13 14 1012.7 - 0.0
30/01:00pm 27.2 30.1 24.5 85 1.9 E 17 20 9 11 1013.3 - 0.0
30/12:30pm 27.2 30.8 24.3 84 2.0 E 13 20 7 11 1013.4 - 0.0
30/12:00pm 27.0 30.6 24.3 85 1.9 E 13 17 7 9 1013.4 - 0.0
30/11:30am 26.6 30.5 24.3 87 1.6 ESE 11 13 6 7 1013.8 - 0.0
30/11:00am 26.5 32.6 24.5 89 1.4 CALM 0 4 0 2 1013.5 1013.5 69.0
30/10:30am 26.3 30.7 24.4 89 1.3 NNW 9 13 5 7 1013.5 - 69.0
30/10:00am 26.7 30.2 23.6 83 2.1 NNE 11 13 6 7 1013.9 - 69.0
30/09:30am 26.4 28.8 23.6 84 1.9 NE 17 20 9 11 1013.5 - 69.0
30/09:00am 26.0 28.8 24.3 90 1.2 NNE 17 22 9 12 1012.9 - 69.0
30/08:29am 25.4 26.8 23.6 90 1.2 NE 22 30 12 16 1012.4 - 69.0
30/08:00am 25.5 26.5 24.2 92 0.9 E 26 32 14 17 1012.1 1012.1 69.0
30/07:46am 25.4 28.9 24.2 93 0.8 E 13 17 7 9 1011.6 - 68.6
30/07:30am 25.8 29.0 24.4 92 1.0 ENE 15 20 8 11 1011.5 - 68.2
30/07:00am 26.1 29.4 23.8 87 1.6 N 13 17 7 9 1011.3 - 68.0
30/06:30am 25.4 29.2 23.5 89 1.3 NNW 9 11 5 6 1011.1 - 68.0
30/06:00am 25.6 28.6 24.0 91 1.1 N 15 28 8 15 1010.6 - 68.0
30/05:36am 25.3 27.4 23.8 91 1.0 N 19 24 10 13 1010.9 - 68.0
30/05:30am 25.4 27.6 23.9 91 1.0 N 19 28 10 15 1010.8 - 67.8
30/05:21am 25.4 27.8 24.2 93 0.8 NNW 19 30 10 16 1010.9 - 67.8
30/05:00am 25.6 29.1 23.5 88 1.4 NNW 11 17 6 9 1010.7 1010.7 67.8
30/04:30am 26.1 28.3 23.3 84 1.9 N 17 20 9 11 1010.6 - 67.8
30/04:00am 26.1 30.7 24.2 89 1.3 N 7 11 4 6 1010.8 - 67.8
30/03:30am 26.4 29.5 23.6 84 1.9 NNE 13 17 7 9 1010.7 - 67.8
30/03:00am 25.9 27.6 24.0 89 1.3 NNE 22 30 12 16 1010.8 - 67.8
30/02:35am 25.1 28.2 23.6 91 1.0 NE 13 17 7 9 1011.4 - 67.2
30/02:30am 25.0 28.6 23.8 93 0.8 E 11 17 6 9 1011.3 - 67.2
30/02:25am 24.7 28.7 23.7 94 0.7 E 9 13 5 7 1011.2 - 67.2
30/02:00am 24.7 25.7 23.5 93 0.8 E 24 26 13 14 1011.6 1011.6 61.8
30/01:31am 26.4 28.5 25.4 94 0.7 E 24 35 13 19 1011.8 - 31.6
30/01:30am 26.5 28.9 25.2 92 0.9 E 22 33 12 18 1011.8 - 29.4
30/01:00am 26.7 32.1 25.1 91 1.1 S 6 11 3 6 1012.0 - 26.8
30/12:30am 27.6 31.4 25.3 87 1.6 NNE 15 19 8 10 1011.9 - 26.8
30/12:00am 27.8 31.0 24.9 84 2.0 NNE 17 22 9 12 1011.8 - 26.4
 
Date/Time
WST
Temp
°C
App
Temp
°C
Dew
Point
Rel
Hum
%
Delta-T
°C
Wind Press
QNH
hPa
Press
MSL
hPa
Rain
since 9 am
mm
Dir
 
Spd
km/h
Gust
km/h
Spd
kts
Gust
kts
29/11:35pm 27.0 32.6 25.4 91 1.1 E 6 9 3 5 1011.7 - 26.4
29/11:30pm 26.9 31.5 25.3 91 1.1 ESE 11 24 6 13 1011.8 - 26.4
29/11:00pm 27.3 32.0 25.0 87 1.6 ENE 9 11 5 6 1011.6 1011.6 25.8
29/10:30pm 26.9 31.4 24.0 84 2.0 NE 7 11 4 6 1011.5 - 25.8
29/10:06pm 26.3 28.3 22.3 78 2.7 N 15 24 8 13 1011.5 - 25.6
29/10:00pm 26.7 28.2 22.7 79 2.7 NNE 19 24 10 13 1011.5 - 25.6
29/09:33pm 26.1 26.9 24.4 90 1.2 ENE 28 33 15 18 1011.3 - 21.8
29/09:30pm 26.3 28.2 25.0 92 0.9 ENE 24 33 13 18 1011.3 - 21.6
29/09:05pm 25.9 27.4 25.0 95 0.6 E 26 35 14 19 1011.1 - 13.4
29/09:00pm 26.1 28.1 25.1 94 0.7 ESE 24 35 13 19 1010.9 - 9.6
29/08:42pm 27.0 27.9 25.3 90 1.2 E 30 39 16 21 1010.4 - 0.8
29/08:41pm 27.3 28.2 25.3 89 1.4 E 30 39 16 21 1010.4 - 0.4
29/08:30pm 28.3 31.9 25.0 82 2.3 ESE 15 20 8 11 1010.1 - 0.0
29/08:00pm 28.5 32.4 25.5 84 2.1 ESE 15 19 8 10 1009.7 1009.7 0.0
29/07:30pm 29.0 32.7 25.2 80 2.7 ESE 15 20 8 11 1009.4 - 0.0
29/07:00pm 29.5 33.5 25.1 77 3.1 E 13 19 7 10 1009.2 - 0.0
29/06:30pm 29.1 32.1 25.3 80 2.7 E 19 22 10 12 1008.8 - 0.0
29/06:00pm 28.8 33.1 25.5 82 2.3 E 13 17 7 9 1008.4 - 0.0
29/05:30pm 27.8 31.2 25.2 86 1.8 ESE 17 24 9 13 1008.6 - 0.0
29/05:00pm 27.5 30.4 25.1 87 1.7 ESE 19 26 10 14 1008.7 1008.7 0.0
29/04:30pm 29.6 32.2 24.9 76 3.3 ENE 20 26 11 14 1009.1 - 0.0
29/04:00pm 29.8 32.9 25.4 77 3.1 ENE 19 22 10 12 1009.4 - 0.0
29/03:30pm 30.5 33.4 25.1 73 3.8 ENE 19 24 10 13 1009.6 - 0.0
29/03:00pm 30.5 32.8 24.5 70 4.2 NE 20 24 11 13 1010.0 - 0.0
29/02:30pm 29.7 32.7 25.5 78 3.0 ENE 20 24 11 13 1010.2 - 0.0
29/02:00pm 29.9 32.5 24.6 73 3.7 NE 19 24 10 13 1010.6 1010.6 0.0
29/01:30pm 30.4 35.1 25.6 75 3.4 ENE 11 15 6 8 1011.0 - 0.0
29/01:00pm 29.3 33.1 24.7 76 3.2 N 13 15 7 8 1011.5 - 0.0
29/12:30pm 29.1 31.1 23.9 73 3.6 N 20 30 11 16 1011.9 - 0.0
29/12:00pm 28.7 32.7 25.0 80 2.6 NE 13 17 7 9 1011.9 - 0.0
29/11:30am 29.9 33.1 24.9 74 3.5 E 17 20 9 11 1012.2 - 0.0
29/11:00am 29.7 32.6 24.4 73 3.7 E 17 20 9 11 1012.1 1012.1 6.0
29/10:30am 29.7 33.3 25.0 76 3.3 E 15 19 8 10 1011.7 - 6.0
29/10:00am 30.3 34.7 25.0 73 3.7 E 11 15 6 8 1011.7 - 6.0
29/09:30am 29.6 33.6 25.0 76 3.2 E 13 15 7 8 1011.4 - 6.0
29/09:00am 29.4 33.8 25.1 77 3.0 E 11 15 6 8 1011.2 - 6.0
29/08:30am 28.6 32.2 24.4 78 2.9 E 13 15 7 8 1010.7 - 6.0
29/08:00am 27.8 32.7 25.2 86 1.8 E 9 11 5 6 1010.3 1010.3 6.0
29/07:30am 27.1 31.9 25.1 89 1.4 ESE 9 11 5 6 1010.0 - 6.0
29/07:00am 27.0 31.9 24.7 87 1.6 ESE 7 9 4 5 1009.7 - 6.0
29/06:30am 26.8 31.8 24.8 89 1.4 ESE 7 9 4 5 1009.4 - 6.0
29/06:00am 27.4 32.4 24.8 86 1.8 E 7 9 4 5 1009.2 - 6.0
29/05:30am 27.3 32.1 24.4 84 2.0 E 7 9 4 5 1009.0 - 6.0
29/05:00am 26.3 30.9 24.1 88 1.5 SE 7 9 4 5 1008.9 1008.9 6.0

Other Formats:

Comma delimited format used in spreadsheet applications
http://www.bom.gov.au/fwo/IDW60801/IDW60801.96996.axf

JavaScript Object Notation format (JSON) in row-major order
http://www.bom.gov.au/fwo/IDW60801/IDW60801.96996.json